Time;durP1;ratioP1;P1;durP2;ratioP2;P2;SDS_P1;SDS_P2;PMS_P1;PMS_P2;Temp;Humidity;BMP_temperature;BMP_pressure;BME280_temperature;BME280_humidity;BME280_pressure;Samples;Min_cycle;Max_cycle;Signal;HPM_P1;HPM_P2
2021/11/28 00:02:22;;;;;;;;;;;-1.10;75.30;;;;;;4845070;29;19924;-73
2021/11/28 00:04:50;;;;;;;;;;;-1.10;75.30;;;;;;4845696;29;20256;-73
2021/11/28 00:15:05;;;;;;;;;;;-1.10;75.40;;;;;;4843583;29;19924;-72
2021/11/28 00:17:33;;;;;;;;;;;-1.10;75.40;;;;;;4844756;29;19924;-71
2021/11/28 00:20:02;;;;;;;;;;;-1.10;75.50;;;;;;4845016;29;19924;-72
2021/11/28 00:22:29;;;;;;;;;;;-1.20;75.60;;;;;;4844786;29;19936;-72
2021/11/28 00:24:57;;;;;;;;;;;-1.10;75.60;;;;;;4844124;29;19928;-71
2021/11/28 00:27:24;;;;;;;;;;;-1.10;75.60;;;;;;4828854;29;19924;-72
2021/11/28 00:29:52;;;;;;;;;;;-1.10;75.60;;;;;;4844150;29;19935;-72
2021/11/28 00:32:19;;;;;;;;;;;-1.20;75.70;;;;;;4844531;29;20276;-72
2021/11/28 00:34:47;;;;;;;;;;;-1.20;75.80;;;;;;4844822;29;20286;-72
2021/11/28 00:37:14;;;;;;;;;;;-1.20;75.80;;;;;;4844675;29;19924;-72
2021/11/28 00:39:43;;;;;;;;;;;-1.20;75.80;;;;;;4843679;29;19925;-72
2021/11/28 00:42:11;;;;;;;;;;;-1.20;75.80;;;;;;4844285;29;20375;-72
2021/11/28 00:44:39;;;;;;;;;;;-1.20;75.90;;;;;;4843720;29;19933;-72
2021/11/28 00:47:07;;;;;;;;;;;-1.20;75.90;;;;;;4844264;29;19991;-71
2021/11/28 00:49:36;;;;;;;;;;;-1.20;75.90;;;;;;4844440;29;19924;-72
2021/11/28 00:52:06;;;;;;;;;;;-1.20;75.90;;;;;;4843535;29;19932;-71
2021/11/28 00:54:34;;;;;;;;;;;-1.20;75.90;;;;;;4844080;29;19930;-72
2021/11/28 00:57:02;;;;;;;;;;;-1.20;76.00;;;;;;4844371;29;19925;-71
2021/11/28 00:59:29;;;;;;;;;;;-1.20;75.90;;;;;;4844268;29;19928;-72
2021/11/28 01:01:56;;;;;;;;;;;-1.20;75.70;;;;;;4828173;29;19947;-72
2021/11/28 01:04:24;;;;;;;;;;;-1.20;75.60;;;;;;4827655;29;19924;-72
2021/11/28 01:11:16;;;;;;;;;;;-1.10;75.50;;;;;;4850284;29;19912;-72
2021/11/28 01:13:44;;;;;;;;;;;-1.10;75.60;;;;;;4842553;29;19932;-71
2021/11/28 01:16:12;;;;;;;;;;;-1.10;75.60;;;;;;4843406;29;19924;-71
2021/11/28 01:18:39;;;;;;;;;;;-1.10;75.70;;;;;;4843178;29;19932;-72
2021/11/28 01:21:08;;;;;;;;;;;-1.20;75.80;;;;;;4843849;29;19932;-72
2021/11/28 01:23:36;;;;;;;;;;;-1.20;76.00;;;;;;4826549;29;19924;-71
2021/11/28 01:26:12;;;;;;;;;;;-1.20;76.10;;;;;;4828003;29;19935;-71
2021/11/28 01:28:39;;;;;;;;;;;-1.30;76.20;;;;;;4826638;29;20379;-71
2021/11/28 01:31:07;;;;;;;;;;;-1.20;76.20;;;;;;4827127;29;19931;-72
2021/11/28 01:33:34;;;;;;;;;;;-1.30;76.30;;;;;;4843372;29;19924;-71
2021/11/28 01:36:02;;;;;;;;;;;-1.30;76.30;;;;;;4842405;29;20379;-71
2021/11/28 01:38:31;;;;;;;;;;;-1.30;76.40;;;;;;4812479;29;19931;-71
2021/11/28 01:40:58;;;;;;;;;;;-1.30;76.40;;;;;;4842672;29;20382;-71
2021/11/28 01:43:26;;;;;;;;;;;-1.30;76.40;;;;;;4841776;29;19925;-71
2021/11/28 01:45:54;;;;;;;;;;;-1.30;76.30;;;;;;4826125;29;20299;-71
2021/11/28 01:48:22;;;;;;;;;;;-1.30;76.30;;;;;;4811619;29;20402;-71
2021/11/28 01:50:51;;;;;;;;;;;-1.30;76.30;;;;;;4826310;29;19924;-72
2021/11/28 01:53:27;;;;;;;;;;;-1.30;76.40;;;;;;4827261;29;19925;-71
2021/11/28 01:55:55;;;;;;;;;;;-1.40;76.40;;;;;;4841971;29;19924;-71
2021/11/28 01:58:29;;;;;;;;;;;-1.40;76.50;;;;;;4827387;29;20394;-72
2021/11/28 02:01:07;;;;;;;;;;;-1.50;76.70;;;;;;4826878;29;19931;-71
2021/11/28 02:03:38;;;;;;;;;;;-1.60;76.80;;;;;;4826134;29;19931;-71
2021/11/28 02:06:06;;;;;;;;;;;-1.60;77.10;;;;;;4825994;29;19932;-71
2021/11/28 02:08:35;;;;;;;;;;;-1.60;77.20;;;;;;4843055;29;20392;-71
2021/11/28 02:11:03;;;;;;;;;;;-1.60;77.30;;;;;;4842221;29;19951;-72
2021/11/28 02:13:32;;;;;;;;;;;-1.60;77.40;;;;;;4826974;29;19925;-71
2021/11/28 02:16:04;;;;;;;;;;;-1.60;77.50;;;;;;4827277;29;19931;-72
2021/11/28 02:18:33;;;;;;;;;;;-1.60;77.60;;;;;;4826169;29;20291;-72
2021/11/28 02:21:02;;;;;;;;;;;-1.60;77.60;;;;;;4843465;29;19947;-71
2021/11/28 02:23:32;;;;;;;;;;;-1.60;77.50;;;;;;4841939;29;20294;-72
2021/11/28 02:26:02;;;;;;;;;;;-1.60;77.40;;;;;;4825593;29;19925;-72
2021/11/28 02:28:31;;;;;;;;;;;-1.50;77.30;;;;;;4841836;29;19928;-72
2021/11/28 02:30:59;;;;;;;;;;;-1.40;77.20;;;;;;4825940;29;19928;-72
2021/11/28 02:33:26;;;;;;;;;;;-1.50;77.20;;;;;;4826333;29;19924;-72
2021/11/28 02:35:56;;;;;;;;;;;-1.50;77.30;;;;;;4841704;29;19924;-71
2021/11/28 02:38:23;;;;;;;;;;;-1.60;77.30;;;;;;4841636;29;19932;-70
2021/11/28 02:45:16;;;;;;;;;;;-1.60;77.60;;;;;;4848901;29;19937;-71
2021/11/28 02:47:44;;;;;;;;;;;-1.70;77.60;;;;;;4826117;29;19955;-71
2021/11/28 02:50:13;;;;;;;;;;;-1.60;77.60;;;;;;4841767;29;19924;-71
2021/11/28 02:52:40;;;;;;;;;;;-1.70;77.60;;;;;;4841322;29;19925;-71
2021/11/28 02:55:08;;;;;;;;;;;-1.70;77.70;;;;;;4841149;29;19924;-71
2021/11/28 02:57:35;;;;;;;;;;;-1.70;77.80;;;;;;4826382;29;20294;-71
2021/11/28 03:00:05;;;;;;;;;;;-1.90;77.90;;;;;;4841307;29;19925;-71
2021/11/28 03:02:37;;;;;;;;;;;-1.90;78.00;;;;;;4826766;29;19924;-71
2021/11/28 03:05:16;;;;;;;;;;;-2.10;78.20;;;;;;4841857;29;20347;-71
2021/11/28 03:07:44;;;;;;;;;;;-2.10;78.40;;;;;;4825986;29;19924;-71
2021/11/28 03:10:30;;;;;;;;;;;-2.20;78.60;;;;;;4826199;29;19925;-71
2021/11/28 03:12:58;;;;;;;;;;;-2.30;78.70;;;;;;4840367;29;19924;-70
2021/11/28 03:15:25;;;;;;;;;;;-2.40;78.90;;;;;;4842291;29;20002;-70
2021/11/28 03:17:57;;;;;;;;;;;-2.50;79.10;;;;;;4825245;29;19924;-70
2021/11/28 03:20:25;;;;;;;;;;;-2.60;79.20;;;;;;4826050;29;19931;-70
2021/11/28 03:22:52;;;;;;;;;;;-2.60;79.40;;;;;;4842244;29;19925;-70
2021/11/28 03:25:22;;;;;;;;;;;-2.60;79.70;;;;;;4842655;29;19929;-70
2021/11/28 03:27:50;;;;;;;;;;;-2.60;79.70;;;;;;4841019;29;19929;-70
2021/11/28 03:30:17;;;;;;;;;;;-2.50;79.90;;;;;;4842180;29;19931;-70
2021/11/28 03:33:11;;;;;;;;;;;-2.50;79.70;;;;;;4838746;29;19932;-70
2021/11/28 03:35:52;;;;;;;;;;;-2.60;79.70;;;;;;4840013;29;20283;-70
2021/11/28 03:38:20;;;;;;;;;;;-2.60;79.90;;;;;;4840590;29;19929;-70
2021/11/28 03:45:10;;;;;;;;;;;-2.60;80.00;;;;;;4851387;29;19920;-70
2021/11/28 03:47:41;;;;;;;;;;;-2.70;80.20;;;;;;4845225;29;19924;-70
2021/11/28 03:50:08;;;;;;;;;;;-2.60;80.40;;;;;;4814660;29;19931;-70
2021/11/28 03:52:36;;;;;;;;;;;-2.60;80.30;;;;;;4845108;29;19947;-70
2021/11/28 03:55:04;;;;;;;;;;;-2.60;80.30;;;;;;4845172;29;20399;-70
2021/11/28 03:57:32;;;;;;;;;;;-2.60;80.30;;;;;;4828485;29;19925;-70
2021/11/28 04:00:03;;;;;;;;;;;-2.60;80.30;;;;;;4843502;29;19947;-70
2021/11/28 04:02:34;;;;;;;;;;;-2.60;80.30;;;;;;4845812;29;19934;-70
2021/11/28 04:05:02;;;;;;;;;;;-2.60;80.40;;;;;;4844221;29;19924;-71
2021/11/28 04:07:35;;;;;;;;;;;-2.60;80.50;;;;;;4845314;29;20363;-70
2021/11/28 04:10:03;;;;;;;;;;;-2.60;80.40;;;;;;4828676;29;20398;-70
2021/11/28 04:12:31;;;;;;;;;;;-2.60;80.40;;;;;;4829150;29;19924;-71
2021/11/28 04:14:59;;;;;;;;;;;-2.60;80.50;;;;;;4828401;29;19943;-70
2021/11/28 04:17:29;;;;;;;;;;;-2.60;80.60;;;;;;4844721;29;20394;-70
2021/11/28 04:20:03;;;;;;;;;;;-2.60;80.60;;;;;;4843232;29;19924;-70
2021/11/28 04:22:30;;;;;;;;;;;-2.60;80.60;;;;;;4828225;29;19928;-70
2021/11/28 04:24:59;;;;;;;;;;;-2.60;80.70;;;;;;4842636;29;20398;-70
2021/11/28 04:27:27;;;;;;;;;;;-2.60;80.70;;;;;;4828264;29;19924;-70
2021/11/28 04:29:55;;;;;;;;;;;-2.60;80.80;;;;;;4843073;29;19925;-70
2021/11/28 04:32:23;;;;;;;;;;;-2.60;80.80;;;;;;4827696;29;19931;-70
2021/11/28 04:34:56;;;;;;;;;;;-2.60;80.90;;;;;;4828260;29;19924;-70
2021/11/28 04:37:23;;;;;;;;;;;-2.60;81.00;;;;;;4828181;29;19931;-70
2021/11/28 04:44:16;;;;;;;;;;;-2.60;81.10;;;;;;4850522;29;19920;-69
2021/11/28 04:46:44;;;;;;;;;;;-2.60;81.10;;;;;;4826871;29;20378;-70
2021/11/28 04:49:12;;;;;;;;;;;-2.60;81.20;;;;;;4842321;29;19925;-70
2021/11/28 04:51:39;;;;;;;;;;;-2.60;81.30;;;;;;4844401;29;19936;-70
2021/11/28 04:54:08;;;;;;;;;;;-2.60;81.30;;;;;;4842931;29;19924;-70
2021/11/28 04:56:36;;;;;;;;;;;-2.60;81.40;;;;;;4844099;29;19924;-70
2021/11/28 04:59:04;;;;;;;;;;;-2.60;81.30;;;;;;4843037;29;19924;-70
2021/11/28 05:01:37;;;;;;;;;;;-2.60;81.30;;;;;;4843858;29;19924;-70
2021/11/28 05:04:19;;;;;;;;;;;-2.70;81.50;;;;;;4827639;29;19924;-70
2021/11/28 05:06:46;;;;;;;;;;;-2.70;81.60;;;;;;4843827;29;19925;-70
2021/11/28 05:09:34;;;;;;;;;;;-2.70;81.60;;;;;;4843584;29;19924;-70
2021/11/28 05:12:02;;;;;;;;;;;-2.80;81.70;;;;;;4842593;29;19925;-69
2021/11/28 05:14:31;;;;;;;;;;;-2.80;81.80;;;;;;4815440;29;20376;-70
2021/11/28 05:17:02;;;;;;;;;;;-2.80;81.90;;;;;;4809090;29;19924;-69
2021/11/28 05:19:32;;;;;;;;;;;-2.80;81.80;;;;;;4825582;29;19925;-69
2021/11/28 05:22:01;;;;;;;;;;;-2.80;82.00;;;;;;4825400;29;19925;-70
2021/11/28 05:24:37;;;;;;;;;;;-2.90;82.00;;;;;;4824584;29;19925;-70
2021/11/28 05:27:05;;;;;;;;;;;-2.90;82.00;;;;;;4809545;29;19931;-70
2021/11/28 05:29:34;;;;;;;;;;;-2.90;82.10;;;;;;4825841;29;19925;-69
2021/11/28 05:32:02;;;;;;;;;;;-2.80;82.20;;;;;;4824191;29;19932;-69
2021/11/28 05:35:05;;;;;;;;;;;-2.70;82.20;;;;;;4816530;29;20268;-69
2021/11/28 05:37:51;;;;;;;;;;;-2.70;82.00;;;;;;4824615;29;19929;-69
2021/11/28 05:40:25;;;;;;;;;;;-2.60;81.90;;;;;;4824292;29;19925;-69
2021/11/28 05:42:54;;;;;;;;;;;-2.60;81.90;;;;;;4823980;29;19932;-69
2021/11/28 05:45:23;;;;;;;;;;;-2.60;81.90;;;;;;4824951;29;20298;-69
2021/11/28 05:48:09;;;;;;;;;;;-2.60;81.80;;;;;;4811847;29;19932;-69
2021/11/28 05:50:44;;;;;;;;;;;-2.50;81.70;;;;;;4824247;29;19925;-69
2021/11/28 05:53:11;;;;;;;;;;;-2.50;81.60;;;;;;4824438;29;20409;-69
2021/11/28 05:55:40;;;;;;;;;;;-2.60;81.60;;;;;;4823897;29;19925;-69
2021/11/28 05:58:08;;;;;;;;;;;-2.60;81.60;;;;;;4809274;29;19932;-69
2021/11/28 06:00:35;;;;;;;;;;;-2.60;81.70;;;;;;4823892;29;19924;-69
2021/11/28 06:03:04;;;;;;;;;;;-2.60;81.70;;;;;;4824704;29;20307;-70
2021/11/28 06:05:52;;;;;;;;;;;-2.60;81.70;;;;;;4824321;29;20414;-69
2021/11/28 06:08:44;;;;;;;;;;;-2.50;81.50;;;;;;4824444;29;19938;-69
2021/11/28 06:11:11;;;;;;;;;;;-2.40;81.30;;;;;;4824335;29;19932;-69
2021/11/28 06:13:40;;;;;;;;;;;-2.40;81.20;;;;;;4828533;29;20394;-69
2021/11/28 06:16:30;;;;;;;;;;;-2.40;81.10;;;;;;4835365;29;19928;-69
2021/11/28 06:19:34;;;;;;;;;;;-2.30;81.00;;;;;;4786855;30;19932;-69
2021/11/28 06:22:16;;;;;;;;;;;-2.40;80.90;;;;;;4785955;30;19925;-69
2021/11/28 06:24:46;;;;;;;;;;;-2.40;80.90;;;;;;4771912;30;20022;-69
2021/11/28 06:27:21;;;;;;;;;;;-2.40;80.90;;;;;;4786434;30;19933;-69
2021/11/28 06:29:51;;;;;;;;;;;-2.40;80.90;;;;;;4771341;30;19941;-69
2021/11/28 06:32:28;;;;;;;;;;;-2.40;80.90;;;;;;4772186;30;19925;-69
2021/11/28 06:35:24;;;;;;;;;;;-2.40;80.80;;;;;;4786574;30;19926;-70
2021/11/28 06:38:24;;;;;;;;;;;-2.30;80.70;;;;;;4786541;30;20431;-70
2021/11/28 06:41:29;;;;;;;;;;;-2.30;80.60;;;;;;4786291;30;20404;-70
2021/11/28 06:43:57;;;;;;;;;;;-2.20;80.30;;;;;;4772255;30;20319;-70
2021/11/28 06:46:24;;;;;;;;;;;-2.20;80.10;;;;;;4785911;30;19925;-69
2021/11/28 06:48:53;;;;;;;;;;;-2.20;80.00;;;;;;4785992;30;20035;-70
2021/11/28 06:51:49;;;;;;;;;;;-2.10;79.90;;;;;;4733026;30;20313;-70
2021/11/28 06:54:35;;;;;;;;;;;-2.10;79.90;;;;;;4752265;30;19970;-70
2021/11/28 06:57:04;;;;;;;;;;;-2.10;79.80;;;;;;4768416;30;19925;-70
2021/11/28 06:59:32;;;;;;;;;;;-2.10;79.80;;;;;;4768253;30;20054;-70
2021/11/28 07:01:59;;;;;;;;;;;-2.10;79.80;;;;;;4768425;30;19943;-70
2021/11/28 07:04:45;;;;;;;;;;;-2.10;79.70;;;;;;4768301;30;19925;-70
2021/11/28 07:07:35;;;;;;;;;;;-2.10;79.60;;;;;;4768734;30;19926;-70
2021/11/28 07:10:09;;;;;;;;;;;-2.10;79.50;;;;;;4769344;30;19926;-70
2021/11/28 07:12:37;;;;;;;;;;;-2.10;79.40;;;;;;4768216;30;19925;-70
2021/11/28 07:15:12;;;;;;;;;;;-2.10;79.40;;;;;;4784859;29;19936;-70
2021/11/28 07:17:40;;;;;;;;;;;-2.00;79.30;;;;;;4790090;30;19948;-70
2021/11/28 07:20:16;;;;;;;;;;;-2.00;79.20;;;;;;4790108;29;20391;-70
2021/11/28 07:22:47;;;;;;;;;;;-2.00;79.10;;;;;;4789865;30;19933;-70
2021/11/28 07:25:14;;;;;;;;;;;-2.00;79.10;;;;;;4789177;30;19982;-70
2021/11/28 07:27:46;;;;;;;;;;;-2.00;79.00;;;;;;4805721;29;19947;-70
2021/11/28 07:30:15;;;;;;;;;;;-2.00;79.00;;;;;;4844140;29;19924;-70
2021/11/28 07:32:45;;;;;;;;;;;-2.00;79.00;;;;;;4828579;29;19932;-70
2021/11/28 07:35:50;;;;;;;;;;;-2.00;78.90;;;;;;4844673;29;20303;-70
2021/11/28 07:38:23;;;;;;;;;;;-2.00;78.90;;;;;;4845314;29;19924;-70
2021/11/28 07:40:52;;;;;;;;;;;-1.90;78.90;;;;;;4829187;29;19924;-70
2021/11/28 07:43:39;;;;;;;;;;;-2.00;78.80;;;;;;4846060;29;19924;-70
2021/11/28 07:46:25;;;;;;;;;;;-1.90;78.80;;;;;;4844293;29;19924;-70
2021/11/28 07:49:04;;;;;;;;;;;-1.90;78.80;;;;;;4828840;29;19931;-70
2021/11/28 07:51:33;;;;;;;;;;;-2.00;78.80;;;;;;4844081;29;19944;-70
2021/11/28 07:54:01;;;;;;;;;;;-2.10;78.90;;;;;;4845201;29;19924;-70
2021/11/28 07:56:33;;;;;;;;;;;-2.10;79.10;;;;;;4843841;29;19936;-70
2021/11/28 07:59:20;;;;;;;;;;;-2.20;79.20;;;;;;4845632;29;19925;-70
2021/11/28 08:01:49;;;;;;;;;;;-2.20;79.30;;;;;;4828573;29;19924;-70
2021/11/28 08:04:35;;;;;;;;;;;-2.30;79.50;;;;;;4845366;29;19924;-70
2021/11/28 08:07:21;;;;;;;;;;;-2.30;79.60;;;;;;4845000;29;19931;-70
2021/11/28 08:10:21;;;;;;;;;;;-2.20;79.50;;;;;;4788491;30;20407;-70
2021/11/28 08:12:48;;;;;;;;;;;-2.20;79.40;;;;;;4788687;30;19966;-70
2021/11/28 08:15:16;;;;;;;;;;;-2.10;79.30;;;;;;4788295;30;19933;-70
2021/11/28 08:17:44;;;;;;;;;;;-2.10;79.30;;;;;;4788608;30;19929;-70
2021/11/28 08:20:12;;;;;;;;;;;-2.10;79.30;;;;;;4788474;30;20005;-71
2021/11/28 08:22:40;;;;;;;;;;;-2.00;79.40;;;;;;4788291;30;19933;-71
2021/11/28 08:25:09;;;;;;;;;;;-2.10;79.40;;;;;;4788473;30;19926;-71
2021/11/28 08:27:37;;;;;;;;;;;-2.10;79.60;;;;;;4786891;29;19925;-71
2021/11/28 08:30:11;;;;;;;;;;;-2.10;79.70;;;;;;4788496;29;20311;-71
2021/11/28 08:32:57;;;;;;;;;;;-2.00;79.80;;;;;;4773647;30;19925;-71
2021/11/28 08:35:43;;;;;;;;;;;-2.00;79.80;;;;;;4788052;30;20248;-70
2021/11/28 08:38:11;;;;;;;;;;;-2.00;79.90;;;;;;4788821;30;19925;-70
2021/11/28 08:40:38;;;;;;;;;;;-1.90;79.90;;;;;;4788535;30;20030;-70
2021/11/28 08:43:05;;;;;;;;;;;-1.90;80.00;;;;;;4787858;30;19926;-70
2021/11/28 08:45:33;;;;;;;;;;;-1.80;80.00;;;;;;4798421;29;19931;-70
2021/11/28 08:48:01;;;;;;;;;;;-1.80;80.10;;;;;;4825851;29;20306;-70
2021/11/28 08:50:29;;;;;;;;;;;-1.70;80.10;;;;;;4826810;29;19932;-70
2021/11/28 08:52:56;;;;;;;;;;;-1.60;80.10;;;;;;4826375;29;19924;-70
2021/11/28 08:55:24;;;;;;;;;;;-1.60;80.00;;;;;;4825370;29;20295;-70
2021/11/28 08:57:51;;;;;;;;;;;-1.50;79.90;;;;;;4824812;29;19932;-70
2021/11/28 09:00:19;;;;;;;;;;;-1.40;79.80;;;;;;4826019;29;20291;-70
2021/11/28 09:02:49;;;;;;;;;;;-1.40;79.80;;;;;;4825685;29;20299;-70
2021/11/28 09:05:19;;;;;;;;;;;-1.30;79.70;;;;;;4825026;29;20287;-70
2021/11/28 09:07:48;;;;;;;;;;;-1.20;79.70;;;;;;4809931;29;20291;-70
2021/11/28 09:10:16;;;;;;;;;;;-1.20;79.50;;;;;;4825417;29;19925;-70
2021/11/28 09:12:45;;;;;;;;;;;-1.10;79.40;;;;;;4825603;29;19931;-70
2021/11/28 09:15:13;;;;;;;;;;;-1.00;79.40;;;;;;4842559;29;19925;-70
2021/11/28 09:17:47;;;;;;;;;;;-0.90;79.40;;;;;;4843577;29;19924;-70
2021/11/28 09:20:18;;;;;;;;;;;-0.90;79.30;;;;;;4844244;29;19932;-70
2021/11/28 09:25:19;;;;;;;;;;;-0.80;79.10;;;;;;4843046;29;19947;-70
2021/11/28 09:27:48;;;;;;;;;;;-0.70;79.00;;;;;;4843095;29;19925;-70
2021/11/28 09:30:17;;;;;;;;;;;-0.60;78.90;;;;;;4843563;29;20323;-70
2021/11/28 09:32:45;;;;;;;;;;;-0.60;78.80;;;;;;4827475;29;19924;-70
2021/11/28 09:35:12;;;;;;;;;;;-0.50;78.50;;;;;;4842066;29;19924;-70
2021/11/28 09:37:40;;;;;;;;;;;-0.50;78.40;;;;;;4843297;29;19924;-70
2021/11/28 09:40:08;;;;;;;;;;;-0.40;78.40;;;;;;4842308;29;20375;-71
2021/11/28 09:42:39;;;;;;;;;;;-0.40;78.40;;;;;;4843280;29;19925;-70
2021/11/28 09:45:07;;;;;;;;;;;-0.30;78.40;;;;;;4843790;29;19924;-70
2021/11/28 09:47:35;;;;;;;;;;;-0.30;78.30;;;;;;4827460;29;19928;-70
2021/11/28 09:50:04;;;;;;;;;;;-0.20;78.10;;;;;;4843199;29;20315;-70
2021/11/28 09:52:31;;;;;;;;;;;-0.10;77.80;;;;;;4842135;29;20409;-70
2021/11/28 09:55:00;;;;;;;;;;;-0.10;77.60;;;;;;4843592;29;19924;-71
2021/11/28 09:57:28;;;;;;;;;;;-0.10;77.20;;;;;;4843024;29;19933;-70
2021/11/28 09:59:58;;;;;;;;;;;-0.10;77.00;;;;;;4843274;29;19941;-71
2021/11/28 10:02:27;;;;;;;;;;;0.00;76.60;;;;;;4842319;29;19924;-71
2021/11/28 10:04:56;;;;;;;;;;;0.00;76.60;;;;;;4842179;29;19928;-70
2021/11/28 10:07:23;;;;;;;;;;;0.00;76.40;;;;;;4842803;29;19925;-70
2021/11/28 10:09:52;;;;;;;;;;;0.10;76.50;;;;;;4842947;29;19925;-70
2021/11/28 10:12:22;;;;;;;;;;;0.10;76.50;;;;;;4843631;29;19932;-71
2021/11/28 10:14:52;;;;;;;;;;;0.20;76.50;;;;;;4842375;29;19924;-70
2021/11/28 10:21:44;;;;;;;;;;;0.30;76.20;;;;;;4848975;29;19919;-70
2021/11/28 10:24:16;;;;;;;;;;;0.40;75.80;;;;;;4842867;29;19924;-70
2021/11/28 10:26:55;;;;;;;;;;;0.50;75.50;;;;;;4842861;29;20298;-70
2021/11/28 10:29:23;;;;;;;;;;;0.60;75.00;;;;;;4843481;29;19924;-70
2021/11/28 10:36:23;;;;;;;;;;;0.80;74.20;;;;;;4849437;29;19942;-70
2021/11/28 10:38:51;;;;;;;;;;;1.00;73.60;;;;;;4842250;29;19924;-70
2021/11/28 10:41:26;;;;;;;;;;;1.20;72.90;;;;;;4825613;29;19924;-70
2021/11/28 10:43:54;;;;;;;;;;;1.20;72.30;;;;;;4826608;29;19935;-70
2021/11/28 10:46:26;;;;;;;;;;;1.30;72.20;;;;;;4843000;29;19925;-70
2021/11/28 10:49:10;;;;;;;;;;;1.50;72.20;;;;;;4841928;29;19924;-70
2021/11/28 10:51:40;;;;;;;;;;;1.70;72.10;;;;;;4844943;29;20302;-70
2021/11/28 10:54:44;;;;;;;;;;;1.80;71.80;;;;;;4845782;29;19931;-71
2021/11/28 10:57:13;;;;;;;;;;;2.00;71.50;;;;;;4775211;30;19925;-70
2021/11/28 10:59:42;;;;;;;;;;;2.10;71.10;;;;;;4790024;30;19944;-70
2021/11/28 11:02:30;;;;;;;;;;;2.20;71.20;;;;;;4788981;30;20312;-70
2021/11/28 11:04:58;;;;;;;;;;;2.20;70.90;;;;;;4789038;30;20409;-70
2021/11/28 11:07:48;;;;;;;;;;;2.30;71.10;;;;;;4777906;30;19929;-70
2021/11/28 11:10:26;;;;;;;;;;;2.30;70.80;;;;;;4789367;30;20451;-70
2021/11/28 11:17:27;;;;;;;;;;;2.20;70.60;;;;;;4776898;30;19939;-70
2021/11/28 11:19:55;;;;;;;;;;;2.20;70.70;;;;;;4771040;30;20035;-70
2021/11/28 11:22:26;;;;;;;;;;;2.30;70.80;;;;;;4771496;30;19932;-71
2021/11/28 11:24:56;;;;;;;;;;;2.30;70.70;;;;;;4771441;30;19938;-70
2021/11/28 11:31:52;;;;;;;;;;;2.30;70.90;;;;;;4813587;29;20382;-71
2021/11/28 11:34:25;;;;;;;;;;;2.30;71.00;;;;;;4811803;29;19925;-70
2021/11/28 11:36:57;;;;;;;;;;;2.30;71.10;;;;;;4827128;29;19925;-71
2021/11/28 11:39:26;;;;;;;;;;;2.40;71.00;;;;;;4811056;29;20359;-71
2021/11/28 11:41:53;;;;;;;;;;;2.40;70.90;;;;;;4811080;29;19932;-71
2021/11/28 11:44:23;;;;;;;;;;;2.50;70.80;;;;;;4826166;29;19924;-71
2021/11/28 11:46:51;;;;;;;;;;;2.50;70.50;;;;;;4827671;29;19932;-71
2021/11/28 11:49:19;;;;;;;;;;;2.50;70.70;;;;;;4827356;29;19925;-71
2021/11/28 11:51:47;;;;;;;;;;;2.40;70.70;;;;;;4827874;29;20032;-71
2021/11/28 11:54:23;;;;;;;;;;;2.40;70.70;;;;;;4827061;29;19925;-71
2021/11/28 11:56:59;;;;;;;;;;;2.40;70.70;;;;;;4810219;29;19931;-71
2021/11/28 11:59:46;;;;;;;;;;;2.40;70.80;;;;;;4811280;29;19925;-71
2021/11/28 12:02:27;;;;;;;;;;;2.50;70.80;;;;;;4826788;29;20287;-71
2021/11/28 12:04:54;;;;;;;;;;;2.50;70.90;;;;;;4826263;29;20416;-71
2021/11/28 12:07:42;;;;;;;;;;;2.50;71.00;;;;;;4811083;29;19932;-71
2021/11/28 12:10:25;;;;;;;;;;;2.40;70.70;;;;;;4790120;29;19925;-71
2021/11/28 12:12:52;;;;;;;;;;;2.40;70.80;;;;;;4811253;29;19925;-71
2021/11/28 12:15:23;;;;;;;;;;;2.50;71.00;;;;;;4830067;29;19924;-71
2021/11/28 12:17:51;;;;;;;;;;;2.50;71.00;;;;;;4844286;29;20294;-71
2021/11/28 12:20:37;;;;;;;;;;;2.60;71.30;;;;;;4828541;29;19949;-71
2021/11/28 12:23:05;;;;;;;;;;;2.60;71.30;;;;;;4844482;29;19931;-71
2021/11/28 12:25:35;;;;;;;;;;;2.70;71.50;;;;;;4845481;29;19932;-71
2021/11/28 12:28:19;;;;;;;;;;;2.70;71.60;;;;;;4844732;29;19924;-71
2021/11/28 12:31:09;;;;;;;;;;;2.70;71.70;;;;;;4844058;29;19951;-71
2021/11/28 12:33:49;;;;;;;;;;;2.80;72.00;;;;;;4828867;29;20256;-71
2021/11/28 12:36:38;;;;;;;;;;;2.80;72.00;;;;;;4844477;29;19931;-72
2021/11/28 12:39:11;;;;;;;;;;;2.90;72.00;;;;;;4845004;29;19928;-72
2021/11/28 12:44:13;;;;;;;;;;;2.90;72.40;;;;;;4845196;29;20248;-72
2021/11/28 12:46:41;;;;;;;;;;;2.90;72.70;;;;;;4843603;29;20367;-72
2021/11/28 12:49:27;;;;;;;;;;;2.80;72.90;;;;;;4844158;29;20366;-72
2021/11/28 12:51:55;;;;;;;;;;;2.80;73.10;;;;;;4843349;29;20306;-72
2021/11/28 12:54:25;;;;;;;;;;;2.70;73.50;;;;;;4843762;29;20003;-72
2021/11/28 12:57:16;;;;;;;;;;;2.60;73.80;;;;;;4844606;29;19932;-72
2021/11/28 13:00:02;;;;;;;;;;;2.60;74.10;;;;;;4837129;29;19924;-72
2021/11/28 13:02:39;;;;;;;;;;;2.50;74.40;;;;;;4844133;29;19925;-72
2021/11/28 13:05:26;;;;;;;;;;;2.40;74.80;;;;;;4844028;29;19935;-72
2021/11/28 13:07:54;;;;;;;;;;;2.40;75.20;;;;;;4844293;29;20280;-72
2021/11/28 13:10:28;;;;;;;;;;;2.30;75.80;;;;;;4843775;29;19925;-72
2021/11/28 13:12:58;;;;;;;;;;;2.30;76.40;;;;;;4844295;29;19932;-72
2021/11/28 13:15:27;;;;;;;;;;;2.40;76.80;;;;;;4827227;29;19931;-72
2021/11/28 13:17:55;;;;;;;;;;;2.50;77.20;;;;;;4843066;29;19947;-72
2021/11/28 13:20:24;;;;;;;;;;;2.50;77.40;;;;;;4828057;29;19925;-72
2021/11/28 13:23:21;;;;;;;;;;;2.60;77.60;;;;;;4831920;29;19924;-72
2021/11/28 13:26:08;;;;;;;;;;;2.60;77.80;;;;;;4844156;29;19924;-72
2021/11/28 13:28:40;;;;;;;;;;;2.60;78.20;;;;;;4843905;29;19928;-72
2021/11/28 13:31:18;;;;;;;;;;;2.60;78.40;;;;;;4843193;29;19948;-72
2021/11/28 13:33:47;;;;;;;;;;;2.50;78.50;;;;;;4842679;29;20402;-72
2021/11/28 13:36:15;;;;;;;;;;;2.50;78.80;;;;;;4843433;29;19940;-73
2021/11/28 13:38:44;;;;;;;;;;;2.50;79.00;;;;;;4843832;29;19924;-72
2021/11/28 13:41:17;;;;;;;;;;;2.50;79.40;;;;;;4842598;29;19932;-72
2021/11/28 13:48:09;;;;;;;;;;;2.70;79.40;;;;;;4849614;29;19983;-72
2021/11/28 13:50:36;;;;;;;;;;;2.60;79.50;;;;;;4843471;29;19924;-72
2021/11/28 13:53:11;;;;;;;;;;;2.40;79.40;;;;;;4827226;29;19924;-72
2021/11/28 13:55:49;;;;;;;;;;;2.30;79.50;;;;;;4843176;29;19932;-72
2021/11/28 14:02:44;;;;;;;;;;;1.90;80.20;;;;;;4843168;29;19913;-72
2021/11/28 14:05:16;;;;;;;;;;;1.70;80.80;;;;;;4826820;29;19925;-72
2021/11/28 14:07:44;;;;;;;;;;;1.50;81.10;;;;;;4842977;29;19941;-72
2021/11/28 14:10:19;;;;;;;;;;;1.40;81.40;;;;;;4841982;29;20410;-72
2021/11/28 14:12:51;;;;;;;;;;;1.50;81.60;;;;;;4842989;29;19924;-72
2021/11/28 14:15:26;;;;;;;;;;;1.30;81.80;;;;;;4842806;29;19951;-72
2021/11/28 14:17:57;;;;;;;;;;;1.30;82.10;;;;;;4842797;29;19925;-72
2021/11/28 14:20:44;;;;;;;;;;;1.30;82.20;;;;;;4843539;29;19924;-72
2021/11/28 14:23:13;;;;;;;;;;;1.30;82.40;;;;;;4843323;29;19924;-72
2021/11/28 14:25:41;;;;;;;;;;;1.20;82.50;;;;;;4826717;29;19924;-72
2021/11/28 14:28:10;;;;;;;;;;;1.20;82.60;;;;;;4842732;29;19925;-72
2021/11/28 14:30:39;;;;;;;;;;;1.10;82.70;;;;;;4843320;29;19928;-72
2021/11/28 14:33:10;;;;;;;;;;;1.10;82.80;;;;;;4842877;29;20067;-72
2021/11/28 14:35:51;;;;;;;;;;;1.00;82.90;;;;;;4842010;29;20294;-72
2021/11/28 14:38:26;;;;;;;;;;;1.00;83.10;;;;;;4842678;29;19931;-72
2021/11/28 14:41:16;;;;;;;;;;;1.00;83.20;;;;;;4842589;29;19932;-72
2021/11/28 14:43:47;;;;;;;;;;;1.00;83.30;;;;;;4835036;29;20011;-72
2021/11/28 14:46:18;;;;;;;;;;;0.90;83.50;;;;;;4843244;29;19931;-72
2021/11/28 14:48:46;;;;;;;;;;;0.90;83.50;;;;;;4843062;29;19944;-72
2021/11/28 14:51:14;;;;;;;;;;;0.80;83.70;;;;;;4842438;29;19931;-72
2021/11/28 14:53:43;;;;;;;;;;;0.80;84.00;;;;;;4842920;29;19924;-72
2021/11/28 14:56:11;;;;;;;;;;;0.80;84.10;;;;;;4825906;29;19931;-72
2021/11/28 14:58:45;;;;;;;;;;;0.80;84.20;;;;;;4843204;29;19924;-72
2021/11/28 15:01:20;;;;;;;;;;;0.80;84.30;;;;;;4826327;29;19931;-72
2021/11/28 15:04:04;;;;;;;;;;;0.80;84.40;;;;;;4841922;29;19924;-72
2021/11/28 15:06:54;;;;;;;;;;;0.80;84.50;;;;;;4842668;29;20307;-72
2021/11/28 15:09:23;;;;;;;;;;;0.80;84.60;;;;;;4835136;29;19931;-72
2021/11/28 15:11:51;;;;;;;;;;;0.80;84.60;;;;;;4841854;29;19996;-72
2021/11/28 15:14:18;;;;;;;;;;;0.80;84.70;;;;;;4841609;29;20380;-72
2021/11/28 15:16:46;;;;;;;;;;;0.80;84.80;;;;;;4841441;29;19924;-72
2021/11/28 15:19:14;;;;;;;;;;;0.80;84.90;;;;;;4841955;29;19931;-72
2021/11/28 15:21:42;;;;;;;;;;;0.80;84.90;;;;;;4826383;29;19925;-72
2021/11/28 15:24:10;;;;;;;;;;;0.80;85.00;;;;;;4842351;29;20079;-72
2021/11/28 15:26:38;;;;;;;;;;;0.80;85.10;;;;;;4842712;29;19925;-71
2021/11/28 15:29:06;;;;;;;;;;;0.80;85.20;;;;;;4842115;29;20300;-72
2021/11/28 15:31:34;;;;;;;;;;;0.80;85.30;;;;;;4841789;29;19931;-71
2021/11/28 15:34:01;;;;;;;;;;;0.80;85.30;;;;;;4842661;29;19924;-71
2021/11/28 15:36:28;;;;;;;;;;;0.90;85.30;;;;;;4842096;29;20402;-72
2021/11/28 15:38:56;;;;;;;;;;;0.80;85.40;;;;;;4846004;29;19924;-72
2021/11/28 15:41:23;;;;;;;;;;;0.80;85.40;;;;;;4845790;29;20283;-72
2021/11/28 15:43:52;;;;;;;;;;;0.80;85.50;;;;;;4845907;29;19924;-72
2021/11/28 15:46:39;;;;;;;;;;;0.80;85.70;;;;;;4832203;29;19924;-71
2021/11/28 15:49:07;;;;;;;;;;;0.80;85.80;;;;;;4829528;29;20363;-71